createdAt,value
2018-05-14T04:41:33.971Z,96.61
2018-05-14T04:42:14.424Z,96.61
2018-05-14T04:44:02.200Z,96.42
2018-05-14T04:44:42.447Z,96.8
2018-05-14T04:45:22.892Z,96.8
2018-05-14T04:46:03.272Z,96.03
2018-05-14T04:46:44.875Z,95.84
2018-05-14T04:47:25.367Z,96.03
2018-05-14T04:48:05.797Z,96.03
2018-05-14T04:48:46.252Z,96.13
2018-05-14T04:49:26.928Z,96.03
2018-05-14T04:50:07.427Z,95.94
2018-05-14T04:50:47.843Z,96.32
2018-05-14T04:54:34.164Z,95.03
2018-05-14T04:55:14.167Z,95.12
2018-05-14T04:59:00.671Z,94.84
2018-05-14T04:59:41.042Z,94.45
2018-05-14T05:00:21.462Z,93.79
2018-05-14T05:01:01.825Z,93.98
2018-05-14T05:02:51.570Z,93.26
2018-05-14T05:03:31.941Z,93.64
2018-05-14T05:04:12.328Z,93.07
2018-05-14T05:04:52.718Z,92.97
2018-05-14T05:05:33.163Z,92.87
2018-05-14T05:06:13.552Z,92.97
2018-05-14T05:06:54.010Z,92.87
2018-05-14T05:07:34.547Z,92.87
2018-05-14T05:08:14.867Z,92.68
2018-05-14T05:08:55.298Z,93.07
2018-05-14T05:09:35.768Z,93.07
2018-05-14T05:10:16.289Z,92.58
2018-05-14T05:10:56.678Z,92.87
2018-05-14T05:11:37.072Z,92.21
2018-05-14T05:16:31.019Z,92.87
2018-05-14T05:17:11.808Z,92.21
2018-05-14T05:17:52.164Z,92.21
2018-05-14T05:18:32.717Z,92.11
2018-05-14T05:19:13.199Z,92.49
2018-05-14T05:19:53.561Z,92.25
2018-05-14T05:20:33.960Z,92.4
2018-05-14T05:21:14.375Z,91.96
2018-05-14T05:21:54.784Z,92.06
2018-05-14T05:22:35.177Z,92.25
2018-05-14T05:23:15.619Z,92.44
2018-05-14T05:23:56.036Z,92.35
2018-05-14T05:24:36.413Z,91.49
2018-05-14T05:25:16.843Z,91.49
2018-05-14T05:28:37.635Z,91.67
2018-05-14T05:29:17.934Z,92.06
2018-05-14T05:29:58.328Z,91.96
2018-05-14T05:30:38.760Z,92.15
2018-05-14T05:31:19.111Z,92.15
2018-05-14T05:31:59.501Z,92.82
2018-05-14T05:32:39.914Z,92.25
2018-05-14T05:33:20.302Z,93.02
2018-05-14T05:34:00.699Z,92.25
2018-05-14T05:34:41.080Z,91.86
2018-05-14T05:35:21.876Z,92.25
2018-05-14T05:36:05.293Z,92.15
2018-05-14T05:36:45.697Z,92.35
2018-05-14T05:37:26.126Z,92.06
2018-05-14T05:38:21.512Z,92.25
2018-05-14T05:39:01.907Z,91.39
2018-05-14T05:39:42.436Z,91.39
2018-05-14T05:40:22.763Z,90.91
2018-05-14T05:41:03.117Z,91.19
2018-05-14T05:41:43.561Z,91.49
2018-05-14T05:42:23.984Z,91.49
2018-05-14T05:43:04.380Z,91.67
2018-05-14T05:46:51.562Z,91
2018-05-14T05:47:31.920Z,90.62
2018-05-14T05:48:12.265Z,90.91
2018-05-14T05:48:52.726Z,90.72
2018-05-14T05:49:33.229Z,90.62
2018-05-14T05:50:13.603Z,90.72
2018-05-14T05:51:08.668Z,91
2018-05-14T05:51:49.095Z,90.72
2018-05-14T05:52:29.566Z,90.91
2018-05-14T05:53:13.889Z,90.81
2018-05-14T05:53:53.985Z,90.33
2018-05-14T05:54:35.664Z,91
2018-05-14T05:55:16.154Z,91.19
2018-05-14T05:55:57.952Z,90.81
2018-05-14T05:56:37.656Z,91
2018-05-14T05:57:18.328Z,91.29
2018-05-14T05:57:59.553Z,90.81
2018-05-14T05:58:40.864Z,90.91
2018-05-14T05:59:20.692Z,91.29
2018-05-14T06:00:01.033Z,91.29
2018-05-14T06:00:41.537Z,91
2018-05-14T06:01:22.019Z,90.86
2018-05-14T06:02:02.418Z,90.86
2018-05-14T06:02:42.828Z,90.38
2018-05-14T06:03:23.239Z,90.38
2018-05-14T06:04:03.623Z,90.91
2018-05-14T06:04:44.002Z,90.23
2018-05-14T06:05:24.493Z,90.28
2018-05-14T06:06:04.999Z,90.19
2018-05-14T06:06:45.401Z,90.86
2018-05-14T06:07:25.807Z,90.95
2018-05-14T06:08:06.228Z,90.76
2018-05-14T06:08:46.622Z,90.28
2018-05-14T06:09:27.014Z,90.67
2018-05-14T06:10:07.421Z,90.67
2018-05-14T06:10:47.793Z,90.76
2018-05-14T06:11:28.238Z,90.38
2018-05-14T06:12:08.993Z,90.28
2018-05-14T06:12:49.282Z,90.28
2018-05-14T06:13:29.625Z,90.67
2018-05-14T06:14:10.030Z,90.47
2018-05-14T06:14:50.449Z,89.9
2018-05-14T06:15:30.943Z,90
2018-05-14T06:16:11.406Z,90.67
2018-05-14T06:16:51.836Z,90.47
2018-05-14T06:17:32.300Z,90.76
2018-05-14T06:18:12.735Z,90.28
2018-05-14T06:18:54.387Z,90.57
2018-05-14T06:19:34.221Z,90.09
2018-05-14T06:20:14.647Z,90
2018-05-14T06:20:55.033Z,89.8
2018-05-14T06:21:35.503Z,90.09
2018-05-14T06:22:15.943Z,90.09
2018-05-14T06:22:56.349Z,89.9
2018-05-14T06:23:36.716Z,89.61
2018-05-14T06:24:17.104Z,89.32
2018-05-14T06:24:57.565Z,89.61
2018-05-14T06:25:38.014Z,89.42
2018-05-14T06:26:18.484Z,89.51
2018-05-14T06:26:58.895Z,89.27
2018-05-14T06:27:39.322Z,89.37
2018-05-14T06:28:19.789Z,88.79
2018-05-14T06:29:00.221Z,89.18
2018-05-14T06:29:40.638Z,89.27
2018-05-14T06:30:21.084Z,88.79
2018-05-14T06:31:01.452Z,88.7
2018-05-14T06:31:41.879Z,88.6
2018-05-14T06:32:22.292Z,88.79
2018-05-14T06:33:02.672Z,88.51
2018-05-14T06:33:43.138Z,88.41
2018-05-14T06:34:23.557Z,87.74
2018-05-14T06:37:54.875Z,87.78
2018-05-14T06:39:04.859Z,87.78
2018-05-14T06:48:08.166Z,86.63
2018-05-14T06:48:49.047Z,87.11
2018-05-14T06:49:29.601Z,87.21
2018-05-14T06:50:10.067Z,87.3
2018-05-14T06:50:50.500Z,87.4
2018-05-14T06:51:30.870Z,86.92
2018-05-14T06:52:11.265Z,86.82
2018-05-14T06:53:05.613Z,86.15
2018-05-14T07:11:46.664Z,85.62
2018-05-14T07:12:42.321Z,85.52
2018-05-14T07:13:22.610Z,85.81
2018-05-14T07:14:03.090Z,86.19
2018-05-14T07:14:43.493Z,85.71
2018-05-14T07:15:23.877Z,86.19
2018-05-14T07:16:19.216Z,85.71
2018-05-14T07:17:14.194Z,85.62
2018-05-14T07:17:57.809Z,85.71
2018-05-14T07:18:38.135Z,85.24
2018-05-14T07:19:18.573Z,84.95
2018-05-14T07:22:45.457Z,84.75
2018-05-14T07:23:25.904Z,85.24
2018-05-14T07:24:09.193Z,84.37
2018-05-14T07:24:49.668Z,84.47
2018-05-14T07:25:30.136Z,85.33
2018-05-14T07:26:13.401Z,85.52
2018-05-14T07:26:53.854Z,85.24
2018-05-14T07:27:34.331Z,85.24
2018-05-14T07:28:29.903Z,84.7
2018-05-14T07:30:23.899Z,84.51
2018-05-14T07:31:15.064Z,84.6
2018-05-14T07:32:04.428Z,84.6
2018-05-14T07:32:53.955Z,84.31
2018-05-14T07:33:43.383Z,83.74
2018-05-14T07:34:55.887Z,84.12
2018-05-14T07:35:51.298Z,84.12
2018-05-14T07:37:01.426Z,83.93
2018-05-14T07:37:42.163Z,83.93
2018-05-14T07:38:22.589Z,83.84
2018-05-14T07:39:18.799Z,83.84
2018-05-14T07:41:18.679Z,83.78
2018-05-14T07:42:01.866Z,83.59
2018-05-14T07:42:42.172Z,83.2
2018-05-14T07:43:23.071Z,83.3
2018-05-14T07:44:03.371Z,83.2
2018-05-14T07:45:14.378Z,83.01
2018-05-14T07:46:24.683Z,82.63
2018-05-14T07:47:05.594Z,82.92
2018-05-14T07:48:00.736Z,83.2
2018-05-14T07:50:27.741Z,82.53
2018-05-14T07:51:37.461Z,82.73
2018-05-14T07:52:23.470Z,81.32
2018-05-14T07:53:10.659Z,81.71
2018-05-14T07:55:24.140Z,80.94
2018-05-14T07:56:19.261Z,80.94
2018-05-14T07:57:06.605Z,80.61
2018-05-14T07:57:50.929Z,80.71
2018-05-14T07:58:34.063Z,80.75
2018-05-14T07:59:20.211Z,81.71
2018-05-14T08:00:18.439Z,80.75
2018-05-14T08:02:12.315Z,81.42
2018-05-14T08:06:17.028Z,80.94
2018-05-14T08:07:03.879Z,81.81
2018-05-14T08:07:59.100Z,81.52
2018-05-14T08:08:40.010Z,81.32
2018-05-14T08:19:34.034Z,79.82
2018-05-14T08:20:20.120Z,79.82
2018-05-14T08:21:18.217Z,80.88
2018-05-14T08:22:16.205Z,80.3
2018-05-14T08:22:57.016Z,79.63
2018-05-14T08:23:42.572Z,80.21
2018-05-14T08:24:28.597Z,80.21
2018-05-14T08:25:16.690Z,79.96
2018-05-14T08:25:58.069Z,80.15
2018-05-14T08:48:28.084Z,74.78
2018-05-14T08:55:45.004Z,72.99
2018-05-14T08:56:24.284Z,72.6
2018-05-14T08:57:06.901Z,72.31
2018-05-14T08:57:51.037Z,72.63
2018-05-14T08:58:32.740Z,72.54
2018-05-14T09:02:38.890Z,71.58
2018-05-14T09:06:03.419Z,70.45
2018-05-14T09:06:45.573Z,70.74
2018-05-14T09:07:27.136Z,72.34
2018-05-14T09:08:08.218Z,71.48
2018-05-14T09:08:48.723Z,71.09
2018-05-14T09:09:29.392Z,70.94
2018-05-14T09:10:10.219Z,71.38
2018-05-14T09:10:50.951Z,72.34
2018-05-14T09:11:32.255Z,71.32
2018-05-14T09:12:14.088Z,71.96
2018-05-14T09:12:55.409Z,72.19
2018-05-14T09:13:36.704Z,71.03
2018-05-14T09:14:17.006Z,71.19
2018-05-14T09:15:01.121Z,70.8
2018-05-14T09:15:41.670Z,71.58
2018-05-14T09:16:22.082Z,71.48
2018-05-14T09:17:03.473Z,71.38
2018-05-14T09:17:45.856Z,71.77
2018-05-14T09:18:28.776Z,71.67
2018-05-14T09:19:09.008Z,71.67
2018-05-14T09:19:52.012Z,71.67
2018-05-14T09:20:33.118Z,71.58
2018-05-14T09:21:14.488Z,70.8
2018-05-14T09:21:54.819Z,71.09
2018-05-14T09:22:40.905Z,71
2018-05-14T09:23:25.109Z,71
2018-05-14T09:24:06.412Z,71.19
2018-05-14T09:24:52.790Z,71.38
2018-05-14T09:25:47.664Z,71.28
2018-05-14T09:26:28.546Z,71.58
2018-05-14T09:27:11.816Z,71.48
2018-05-14T09:27:53.693Z,71.48
2018-05-14T09:28:36.302Z,71.48
2018-05-14T09:29:16.898Z,70.9
2018-05-14T09:29:58.207Z,71.28
2018-05-14T09:30:47.117Z,71.28
2018-05-14T09:31:28.768Z,70.9
2018-05-14T09:40:57.107Z,70.54
2018-05-14T09:41:37.598Z,70.64
2018-05-14T09:42:21.197Z,69.78
2018-05-14T09:50:50.691Z,69.17
2018-05-14T09:51:25.695Z,67.62
2018-05-14T09:52:08.593Z,67.36
2018-05-14T09:52:49.404Z,67.17
2018-05-14T09:53:33.306Z,66.4
2018-05-14T09:54:14.953Z,67.08
2018-05-14T09:54:55.917Z,65.92
2018-05-14T09:55:37.817Z,66.5
2018-05-14T09:56:21.426Z,66.2
2018-05-14T09:57:02.145Z,66.4
2018-05-14T09:57:43.219Z,66.82
2018-05-14T09:58:24.305Z,66.33
2018-05-14T09:59:04.806Z,65.56
2018-05-14T09:59:45.611Z,65.08
2018-05-14T10:00:27.199Z,65.37
2018-05-14T10:01:07.774Z,64.79
2018-05-14T10:01:48.265Z,65.75
2018-05-14T10:02:28.908Z,65.08
2018-05-14T10:03:09.575Z,65.56
2018-05-14T10:49:00.740Z,64.01
2018-05-14T10:49:40.979Z,64.01
2018-05-14T10:50:22.148Z,64.69
2018-05-14T10:51:03.572Z,64.85
2018-05-14T10:51:45.158Z,65.24
2018-05-14T10:52:25.957Z,65.43
2018-05-14T10:53:06.484Z,65.24
2018-05-14T10:53:47.938Z,65.24
2018-05-14T10:54:30.074Z,65.14
2018-05-14T10:55:10.532Z,65.34
2018-05-14T10:55:51.521Z,65.34
2018-05-14T10:56:32.649Z,64.95
2018-05-14T10:57:13.205Z,65.24
2018-05-14T10:57:54.300Z,65.05
2018-05-14T10:58:35.471Z,65.82
2018-05-14T10:59:15.605Z,65.27
2018-05-14T10:59:56.950Z,64.98
2018-05-14T11:00:37.122Z,64.79
2018-05-14T11:01:19.493Z,63.92
2018-05-14T11:01:59.824Z,64.4
2018-05-14T11:02:41.693Z,64.98
2018-05-14T11:03:22.012Z,63.95
2018-05-14T11:04:03.610Z,64.14
2018-05-14T11:04:43.646Z,64.43
2018-05-14T11:05:24.355Z,63.95
2018-05-14T11:06:05.511Z,63.66
2018-05-14T11:06:46.030Z,63.27
2018-05-14T11:07:27.568Z,63.66
2018-05-14T11:08:07.635Z,63.37
2018-05-14T11:08:49.598Z,63.4
2018-05-14T11:09:30.745Z,62.79
2018-05-14T11:10:13.588Z,63.01
2018-05-14T11:12:35.788Z,61.3
2018-05-14T11:13:23.029Z,60.07
2018-05-14T11:14:05.049Z,61.33
2018-05-14T11:14:45.751Z,59.91
2018-05-14T11:15:26.072Z,59.33
2018-05-14T11:16:06.939Z,58.77
2018-05-14T11:16:48.171Z,59.06
2018-05-14T11:17:29.056Z,58.67
2018-05-14T11:18:10.548Z,57.7
2018-05-14T11:18:51.534Z,57.9
2018-05-14T11:19:32.352Z,57.51
2018-05-14T11:20:13.042Z,58.29
2018-05-14T11:20:53.984Z,58.48
2018-05-14T11:21:34.423Z,58.19
2018-05-14T11:22:15.464Z,58.19
2018-05-14T11:22:56.201Z,57.51
2018-05-14T11:23:37.304Z,57.44
2018-05-14T11:24:18.690Z,57.83
2018-05-14T11:25:00.963Z,57.34
2018-05-14T11:25:42.017Z,57.25
2018-05-14T11:26:23.298Z,56.67
2018-05-14T11:27:03.164Z,57.25
2018-05-14T11:27:44.231Z,57.25
2018-05-14T11:28:24.766Z,56.28
2018-05-14T11:29:05.666Z,56.57
2018-05-14T11:29:47.870Z,57.15
2018-05-14T11:30:28.508Z,56.47
2018-05-14T11:31:09.353Z,56.3
2018-05-14T11:31:50.369Z,56.11
2018-05-14T11:32:30.901Z,55.94
2018-05-14T11:33:11.880Z,55.46
2018-05-14T11:33:52.629Z,55.17
2018-05-14T11:34:33.508Z,55.17
2018-05-14T11:35:21.317Z,54.78
2018-05-14T11:36:01.768Z,54.2
2018-05-14T11:36:42.443Z,53.93
2018-05-14T11:37:22.693Z,53.83
2018-05-14T11:38:04.604Z,54.03
2018-05-14T11:38:45.926Z,54.22
2018-05-14T11:39:26.261Z,53.16
2018-05-14T11:40:06.900Z,53.93
2018-05-14T11:40:47.279Z,53.16
2018-05-14T11:41:28.109Z,53.74
2018-05-14T11:42:08.695Z,53.28
2018-05-14T11:42:49.392Z,53.77
2018-05-14T11:43:30.835Z,53.47
2018-05-14T11:44:12.428Z,53.47
2018-05-14T11:44:53.514Z,53.18
2018-05-14T11:45:34.860Z,52.98
2018-05-14T11:46:17.281Z,52.01
2018-05-14T11:48:08.420Z,52.79
2018-05-14T11:48:49.834Z,52.98
2018-05-14T11:49:30.564Z,52.4
2018-05-14T11:50:12.214Z,52.69
2018-05-14T11:50:53.943Z,53.74
2018-05-14T11:51:33.827Z,53.54
2018-05-14T11:52:14.988Z,54.13
2018-05-14T11:52:55.469Z,53.64
2018-05-14T11:53:37.309Z,53.28
2018-05-14T11:54:18.746Z,53.08
2018-05-14T11:55:00.246Z,53.38
2018-05-14T11:55:43.242Z,52.69
2018-05-14T11:56:24.726Z,52.72
2018-05-14T11:57:05.853Z,52.14
2018-05-14T11:57:46.919Z,52.04
2018-05-14T11:58:29.409Z,51.29
2018-05-14T11:59:11.022Z,51.36
2018-05-14T11:59:51.385Z,51.26
2018-05-14T12:00:32.741Z,51.84
2018-05-14T12:01:13.313Z,51.58
2018-05-14T12:01:55.077Z,51.48
2018-05-14T12:02:35.769Z,51.77
2018-05-14T12:03:17.028Z,51.39
2018-05-14T12:04:00.139Z,50.53
2018-05-14T12:04:40.528Z,50.04
2018-05-14T12:05:21.931Z,49.95
2018-05-14T12:06:02.584Z,50.26
2018-05-14T12:06:44.042Z,49.97
2018-05-14T12:07:25.838Z,49.49
2018-05-14T12:08:07.183Z,49.39
2018-05-14T12:08:51.492Z,49.29
2018-05-14T12:09:33.119Z,49.39
2018-05-14T12:10:13.970Z,49.68
2018-05-14T12:10:54.869Z,50.16
2018-05-14T12:11:36.181Z,49.76
2018-05-14T12:12:16.672Z,50.53
2018-05-14T12:12:57.420Z,49.76
2018-05-14T12:13:38.020Z,50.63
2018-05-14T12:14:20.023Z,51.29
2018-05-14T12:15:01.854Z,51.09
2018-05-14T12:15:43.543Z,50.99
2018-05-14T12:16:27.126Z,50.9
2018-05-14T12:17:07.702Z,51.8
2018-05-14T12:17:48.391Z,50.8
2018-05-14T12:18:31.563Z,50.41
2018-05-14T12:19:12.785Z,51.19
2018-05-14T12:19:54.102Z,50.7
2018-05-14T12:20:35.082Z,51.39
2018-05-14T12:21:17.630Z,51.61
2018-05-14T12:21:57.182Z,50.63
2018-05-14T12:22:38.727Z,50.82
2018-05-14T12:23:19.310Z,49.27
2018-05-14T12:24:00.093Z,49.95
2018-05-14T12:24:41.154Z,49.95
2018-05-14T12:25:23.409Z,50.46
2018-05-14T12:26:07.112Z,50.56
2018-05-14T12:26:50.980Z,49.78
2018-05-14T12:27:32.957Z,50.36
2018-05-14T12:28:13.712Z,50.46
2018-05-14T12:28:54.445Z,50.56
2018-05-14T12:29:35.846Z,50.09
2018-05-14T12:30:16.480Z,49.61
2018-05-14T12:31:04.337Z,49.71
2018-05-14T12:31:44.388Z,49.71
2018-05-14T12:32:25.604Z,50.09
2018-05-14T12:33:06.062Z,49.41
2018-05-14T12:33:47.663Z,49.32
2018-05-14T12:34:29.976Z,49.02
2018-05-14T12:35:12.378Z,48.73
2018-05-14T12:35:52.245Z,48.46
2018-05-14T12:36:33.259Z,48.17
2018-05-14T12:37:14.281Z,48.17
2018-05-14T12:37:57.894Z,47
2018-05-14T12:38:38.065Z,47.02
2018-05-14T12:39:18.568Z,47.22
2018-05-14T12:39:59.431Z,46.44
2018-05-14T12:40:41.118Z,46.53
2018-05-14T12:41:21.452Z,47.41
2018-05-14T12:42:02.566Z,46.24
2018-05-14T12:42:43.139Z,45.46
2018-05-14T12:43:23.662Z,46.34
2018-05-14T12:44:05.156Z,46.36
2018-05-14T12:44:46.033Z,45.97
2018-05-14T12:45:28.160Z,46.07
2018-05-14T12:46:08.709Z,46.07
2018-05-14T12:46:48.953Z,46.26
2018-05-14T12:48:48.858Z,47.31
2018-05-14T12:49:29.512Z,47.22
2018-05-14T12:50:10.497Z,46.24
2018-05-14T12:50:50.632Z,45.75
2018-05-14T12:51:31.744Z,45.56
2018-05-14T12:52:12.365Z,45.56
2018-05-14T12:52:52.917Z,45.65
2018-05-14T12:53:33.814Z,45.65
2018-05-14T12:54:14.984Z,44.8
2018-05-14T12:54:55.674Z,44.78
2018-05-14T12:55:36.453Z,45.09
2018-05-14T12:56:18.016Z,45.58
2018-05-14T12:56:59.436Z,45.97
2018-05-14T12:57:40.549Z,45.97
2018-05-14T12:58:23.651Z,46.07
2018-05-14T12:59:03.655Z,46.36
2018-05-14T12:59:44.166Z,46.17
2018-05-14T13:00:25.791Z,45.68
2018-05-14T13:01:06.790Z,45.87
2018-05-14T13:01:47.356Z,45.68
2018-05-14T13:02:28.315Z,45
2018-05-14T13:03:08.796Z,45.78
2018-05-14T13:03:50.851Z,45.97
2018-05-14T13:04:31.716Z,45.68
2018-05-14T13:05:14.445Z,46.24
2018-05-14T13:05:57.071Z,45.85
2018-05-14T13:06:37.873Z,46.34
2018-05-14T13:07:19.613Z,46.36
2018-05-14T13:08:01.266Z,46.26
2018-05-14T13:08:42.144Z,45.19
2018-05-14T13:09:23.681Z,45.78
2018-05-14T13:10:04.199Z,45.58
2018-05-14T13:10:45.701Z,45.7
2018-05-14T13:11:25.987Z,45.7
2018-05-14T13:12:07.469Z,45.02
2018-05-14T13:12:49.775Z,44.63
2018-05-14T13:13:32.593Z,44.82
2018-05-14T13:14:13.257Z,44.92
2018-05-14T13:14:55.386Z,45.12
2018-05-14T13:15:36.583Z,44.73
2018-05-14T13:16:17.696Z,43.65
2018-05-14T13:16:59.571Z,44.26
2018-05-14T13:17:40.299Z,44.63
2018-05-14T13:18:20.495Z,43.75
2018-05-14T13:19:01.170Z,43.57
2018-05-14T13:19:41.690Z,43.48
2018-05-14T13:20:22.925Z,43.87
2018-05-14T13:21:03.552Z,42.6
2018-05-14T13:21:45.361Z,42.89
2018-05-14T13:22:27.074Z,43.48
2018-05-14T13:23:07.424Z,43.3
2018-05-14T13:23:50.629Z,43.01
2018-05-14T13:24:31.609Z,42.61
2018-05-14T13:25:12.749Z,42.52
2018-05-14T13:25:54.289Z,42.03
2018-05-14T13:26:33.881Z,40.86
2018-05-14T13:27:15.608Z,40.17
2018-05-14T13:27:55.385Z,40.08
2018-05-14T13:28:38.644Z,40.86
2018-05-14T13:29:18.504Z,41.74
2018-05-14T13:29:59.362Z,41.93
2018-05-14T13:30:39.738Z,41.86
2018-05-14T13:31:20.599Z,40.58
2018-05-14T13:32:01.620Z,40.88
2018-05-14T13:32:42.638Z,40.97
2018-05-14T13:33:24.212Z,39.8
2018-05-14T13:34:04.577Z,39.7
2018-05-14T13:34:45.382Z,39.22
2018-05-14T13:35:25.899Z,39.61
2018-05-14T13:36:06.438Z,39.78
2018-05-14T13:36:48.631Z,40.08
2018-05-14T13:37:29.335Z,39.31
2018-05-14T13:38:10.206Z,40.29
2018-05-14T13:38:52.572Z,39.1
2018-05-14T13:39:34.149Z,39.29
2018-05-14T13:40:15.141Z,39.31
2018-05-14T13:40:55.523Z,39.1
2018-05-14T13:43:19.374Z,39.08
2018-05-14T13:43:57.788Z,39.18
2018-05-14T13:44:39.537Z,39.59
2018-05-14T13:45:20.935Z,39.29
2018-05-14T13:46:01.356Z,39.29
2018-05-14T13:46:42.033Z,39.59
2018-05-14T13:47:27.087Z,39
2018-05-14T13:48:08.721Z,38.51
2018-05-14T13:48:50.198Z,38.61
2018-05-14T13:49:30.621Z,39.28
2018-05-14T13:50:12.522Z,38.3
2018-05-14T13:50:53.259Z,38.89
2018-05-14T13:51:33.894Z,39.28
2018-05-14T13:52:14.314Z,39.47
2018-05-14T13:52:54.808Z,38.89
2018-05-14T13:53:35.382Z,39.45
2018-05-14T13:54:15.814Z,39.36
2018-05-14T13:54:57.043Z,39.65
2018-05-14T13:55:37.287Z,40.01
2018-05-14T13:56:17.735Z,39.82
2018-05-14T13:56:58.318Z,39.61
2018-05-14T13:57:40.294Z,39.72
2018-05-14T13:58:20.795Z,39.8
2018-05-14T13:59:01.420Z,39.31
2018-05-14T13:59:42.026Z,40.09
2018-05-14T14:00:22.555Z,40.56
2018-05-14T14:01:03.238Z,40.76
2018-05-14T14:01:44.092Z,41.15
2018-05-14T14:02:24.540Z,40.86
2018-05-14T14:03:06.061Z,40.64
2018-05-14T14:03:46.606Z,40.93
2018-05-14T14:04:27.212Z,41.61
2018-05-14T14:05:07.668Z,41.81
2018-05-14T14:05:48.460Z,41.71
2018-05-14T14:06:29.081Z,41.52
2018-05-14T14:07:10.972Z,41.91
2018-05-14T14:07:52.980Z,42
2018-05-14T14:08:32.633Z,42.1
2018-05-14T14:09:13.901Z,41.91
2018-05-14T14:09:54.495Z,42
2018-05-14T14:10:35.223Z,41.91
2018-05-14T14:11:15.861Z,41.54
2018-05-14T14:11:56.698Z,41.44
2018-05-14T14:12:38.488Z,41.63
2018-05-14T14:13:18.210Z,40.95
2018-05-14T14:13:58.667Z,40.56
2018-05-14T14:16:14.133Z,40.58
2018-05-14T14:16:56.035Z,40.19
2018-05-14T14:17:36.225Z,40.11
2018-05-14T14:18:18.123Z,40.5
2018-05-14T14:19:00.488Z,39.92
2018-05-14T14:19:40.360Z,40.23
2018-05-14T14:20:22.143Z,39.65
2018-05-14T14:21:02.908Z,39.36
2018-05-14T14:21:43.472Z,39.06
2018-05-14T14:22:25.694Z,38.67
2018-05-14T14:23:07.749Z,38.96
2018-05-14T14:23:49.246Z,38.57
2018-05-14T14:24:30.507Z,38.89
2018-05-14T14:25:12.496Z,38.59
2018-05-14T14:25:54.488Z,38.49
2018-05-14T14:26:34.585Z,38.01
2018-05-14T14:27:15.965Z,38.4
2018-05-14T14:27:56.165Z,38.4
2018-05-14T14:28:37.508Z,38.2
2018-05-14T14:29:18.823Z,38.2
2018-05-14T14:29:59.417Z,38.49
2018-05-14T14:30:41.014Z,37.32
2018-05-14T14:31:21.862Z,37.62
2018-05-14T14:32:02.669Z,37.52
2018-05-14T14:32:43.438Z,37.32
2018-05-14T14:33:24.686Z,37.62
2018-05-14T14:34:07.024Z,37.52
2018-05-14T14:34:47.667Z,37.52
2018-05-14T14:35:27.495Z,37.22
2018-05-14T14:36:08.394Z,38.01
2018-05-14T14:36:49.479Z,37.81
2018-05-14T14:37:31.601Z,37.93
2018-05-14T14:38:13.006Z,37.63
2018-05-14T14:38:55.032Z,37.24
2018-05-14T14:39:36.092Z,37.73
2018-05-14T14:40:17.483Z,37.34
2018-05-14T14:40:58.077Z,36.85
2018-05-14T14:41:37.941Z,36.85
2018-05-14T14:42:20.240Z,36.07
2018-05-14T14:43:00.737Z,36.54
2018-05-14T14:43:41.913Z,36.73
2018-05-14T14:44:22.928Z,36.15
2018-05-14T14:45:03.669Z,36.54
2018-05-14T14:45:44.266Z,37.02
2018-05-14T14:46:25.252Z,36.63
2018-05-14T14:47:05.787Z,36.54
2018-05-14T14:47:46.573Z,36.83
2018-05-14T14:48:27.379Z,36.44
2018-05-14T14:49:07.694Z,36.05
2018-05-14T14:49:48.935Z,35.85
2018-05-14T14:50:29.568Z,35.85
2018-05-14T14:51:10.027Z,36.55
2018-05-14T14:51:51.017Z,36.85
2018-05-14T14:52:31.524Z,35.95
2018-05-14T14:53:12.311Z,36.07
2018-05-14T14:53:53.750Z,35.58
2018-05-14T14:54:35.600Z,36.16
2018-05-14T14:55:16.908Z,36.46
2018-05-14T14:55:57.041Z,36.16
2018-05-14T14:56:37.254Z,35.77
2018-05-14T14:57:19.773Z,36.08
2018-05-14T14:58:00.679Z,35.87
2018-05-14T14:58:41.119Z,35.97
2018-05-14T14:59:22.862Z,35.38
2018-05-14T15:00:03.221Z,35.97
2018-05-14T15:00:43.827Z,35.77
2018-05-14T15:01:24.415Z,35.68
2018-05-14T15:02:05.019Z,35.66
2018-05-14T15:02:46.259Z,35.85
2018-05-14T15:03:27.733Z,35.95
2018-05-14T15:04:08.161Z,35.68
2018-05-14T15:04:48.811Z,35.77
2018-05-14T15:05:29.211Z,35.28
2018-05-14T15:06:10.067Z,35.48
2018-05-14T15:06:50.913Z,35.48
2018-05-14T15:07:31.637Z,35.77
2018-05-14T15:08:12.531Z,35.77
2018-05-14T15:08:53.006Z,35.97
2018-05-14T15:09:33.500Z,36.07
2018-05-14T15:10:15.377Z,35.97
2018-05-14T15:10:55.608Z,34.7
2018-05-14T15:11:37.144Z,35.95
2018-05-14T15:12:17.644Z,35.85
2018-05-14T15:12:59.534Z,35.66
2018-05-14T15:13:41.613Z,36.15
2018-05-14T15:14:23.105Z,35.75
2018-05-14T15:15:03.828Z,36.15
2018-05-14T15:15:45.503Z,36.44
2018-05-14T15:16:27.132Z,36.15
2018-05-14T15:17:07.881Z,35.85
2018-05-14T15:17:48.975Z,36.05
2018-05-14T15:18:30.188Z,36.15
2018-05-14T15:19:10.970Z,36.24
2018-05-14T15:19:52.653Z,35.75
2018-05-14T15:20:33.156Z,35.56
2018-05-14T15:21:14.412Z,35.95
2018-05-14T15:21:55.398Z,35.85
2018-05-14T15:22:35.851Z,35.85
2018-05-14T15:23:17.808Z,35.95
2018-05-14T15:23:57.902Z,36.05
2018-05-14T15:24:38.476Z,35.85
2018-05-14T15:25:19.466Z,36.44
2018-05-14T15:26:01.013Z,36.63
2018-05-14T15:26:42.593Z,36.62
2018-05-14T15:27:23.011Z,36.63
2018-05-14T15:28:04.107Z,36.63
2018-05-14T15:28:44.629Z,35.85
2018-05-14T15:29:25.563Z,36.05
2018-05-14T15:30:05.779Z,35.75
2018-05-14T15:30:46.654Z,35.85
2018-05-14T15:31:28.255Z,35.95
2018-05-14T15:32:08.567Z,35.85
2018-05-14T15:32:48.959Z,35.95
2018-05-14T15:33:29.393Z,35.95
2018-05-14T15:34:10.127Z,35.56
2018-05-14T15:35:58.233Z,35.36
2018-05-14T15:36:38.806Z,35.56
2018-05-14T15:37:20.047Z,35.46
2018-05-14T15:38:02.937Z,35.07
2018-05-14T15:40:16.681Z,34.39
2018-05-14T15:40:57.063Z,34.38
2018-05-14T15:41:37.464Z,33.69
2018-05-14T15:42:18.191Z,33.59
2018-05-14T15:42:58.598Z,34.47
2018-05-14T15:43:39.025Z,33.59
2018-05-14T15:44:19.461Z,33.48
2018-05-14T15:44:59.865Z,33.28
2018-05-14T15:45:40.432Z,34.55
2018-05-14T15:46:20.908Z,34.24
2018-05-14T15:47:01.436Z,34.05
2018-05-14T15:47:41.849Z,34.44
2018-05-14T15:48:22.240Z,34.63
2018-05-14T15:49:02.701Z,33.65
2018-05-14T15:49:43.077Z,34.44
2018-05-14T15:50:23.474Z,34.81
2018-05-14T15:51:03.996Z,35.96
2018-05-14T15:51:44.339Z,35.38
2018-05-14T15:52:24.708Z,35.67
2018-05-14T15:53:05.133Z,36.06
2018-05-14T15:53:45.777Z,35.96
2018-05-14T15:54:26.101Z,35.77
2018-05-14T15:55:06.478Z,35.47
2018-05-14T15:55:46.958Z,35.28
2018-05-14T15:56:27.327Z,35.38
2018-05-14T15:57:07.714Z,35.06
2018-05-14T15:57:48.169Z,35.18
2018-05-14T15:58:28.596Z,34.29
2018-05-14T15:59:09.039Z,34.11
2018-05-14T15:59:49.440Z,34.48
2018-05-14T16:00:29.830Z,34.39
2018-05-14T16:01:10.322Z,34
2018-05-14T16:01:50.677Z,34
2018-05-14T16:02:31.101Z,33.23
2018-05-14T16:03:11.510Z,33.51
2018-05-14T16:03:51.996Z,34.01
2018-05-14T16:04:32.529Z,32.92
2018-05-14T16:43:07.259Z,35.66
2018-05-14T16:43:47.579Z,36.54
2018-05-14T16:44:28.144Z,37.02
2018-05-14T16:45:08.644Z,36.22
2018-05-14T16:45:48.929Z,35.86
2018-05-14T16:46:29.526Z,35.96
2018-05-14T16:47:09.775Z,35.84
2018-05-14T16:47:50.372Z,35.84
2018-05-14T16:48:30.857Z,35.94
2018-05-14T16:49:11.392Z,35.55
2018-05-14T16:49:51.709Z,35.64
2018-05-14T16:50:32.123Z,35.55
2018-05-14T16:51:12.526Z,35.55
2018-05-14T16:51:53.020Z,36.34
2018-05-14T16:52:33.447Z,36.42
2018-05-14T16:53:13.793Z,36.63
2018-05-14T16:53:54.173Z,36.24
2018-05-14T16:54:34.588Z,36.24
2018-05-14T16:55:15.038Z,36.34
2018-05-14T16:55:55.421Z,35.86
2018-05-14T16:56:35.891Z,35.76
2018-05-14T16:57:16.336Z,35.76
2018-05-14T16:57:56.758Z,36.34
2018-05-14T16:58:37.147Z,35.97
2018-05-14T16:59:17.636Z,35.57
2018-05-14T16:59:58.034Z,35.29
2018-05-14T17:00:38.462Z,35.1
2018-05-14T17:01:19.029Z,35.17
2018-05-14T17:01:59.397Z,35.49
2018-05-14T17:02:40.006Z,35.27
2018-05-14T17:03:20.369Z,35.47
2018-05-14T17:04:00.804Z,35.76
2018-05-14T17:04:41.117Z,35.86
2018-05-14T17:05:21.532Z,36.05
2018-05-14T17:06:01.946Z,35.96
2018-05-14T17:06:42.300Z,36.05
2018-05-14T17:07:22.748Z,36.05
2018-05-14T17:08:03.150Z,36.05
2018-05-14T17:08:43.555Z,36.05
2018-05-14T17:09:23.967Z,35.57
2018-05-14T17:10:04.359Z,35.68
2018-05-14T17:10:44.816Z,36.16
2018-05-14T17:11:25.205Z,35.76
2018-05-14T17:12:05.683Z,35.66
2018-05-14T17:12:46.640Z,35.76
2018-05-14T17:13:27.036Z,35.27
2018-05-14T17:14:07.452Z,35.47
2018-05-14T17:14:47.914Z,35.08
2018-05-14T17:15:28.289Z,35.37